createdAt,value
2018-08-06T00:00:42.888Z,95099.42
2018-08-06T00:03:11.672Z,95095.17
2018-08-06T00:05:40.421Z,95098.89
2018-08-06T00:08:09.280Z,95094.31
2018-08-06T00:10:38.982Z,95098.56
2018-08-06T00:13:08.185Z,95099.89
2018-08-06T00:15:37.381Z,95092.16
2018-08-06T00:18:06.239Z,95085.98
2018-08-06T00:20:35.830Z,95085.96
2018-08-06T00:23:04.682Z,95089.71
2018-08-06T00:25:33.464Z,95084.91
2018-08-06T00:28:02.277Z,95090.16
2018-08-06T00:30:31.763Z,95092.20
2018-08-06T00:33:00.567Z,95088.73
2018-08-06T00:35:29.705Z,95092.92
2018-08-06T00:37:58.502Z,95091.59
2018-08-06T00:40:27.247Z,95090.28
2018-08-06T00:42:56.011Z,95091.13
2018-08-06T00:45:24.886Z,95091.34
2018-08-06T00:47:53.873Z,95092.36
2018-08-06T00:50:22.721Z,95084.68
2018-08-06T00:52:51.491Z,95087.06
2018-08-06T00:55:20.947Z,95086.53
2018-08-06T00:57:49.868Z,95089.45
2018-08-06T01:00:20.467Z,95083.22
2018-08-06T01:02:49.294Z,95078.36
2018-08-06T01:05:18.452Z,95078.05
2018-08-06T01:07:47.259Z,95076.69
2018-08-06T01:10:18.716Z,95073.92
2018-08-06T01:12:47.515Z,95078.72
2018-08-06T01:15:17.937Z,95072.59
2018-08-06T01:17:46.790Z,95082.43
2018-08-06T01:20:16.003Z,95086.18
2018-08-06T01:22:45.585Z,95080.33
2018-08-06T01:25:14.909Z,95076.05
2018-08-06T01:27:44.118Z,95077.34
2018-08-06T01:30:14.678Z,95077.59
2018-08-06T01:32:43.548Z,95077.07
2018-08-06T01:35:12.626Z,95073.88
2018-08-06T01:37:41.782Z,95070.41
2018-08-06T01:40:13.284Z,95073.01
2018-08-06T01:42:42.673Z,95073.01
2018-08-06T01:45:14.107Z,95071.92
2018-08-06T01:47:43.266Z,95068.70
2018-08-06T01:50:13.122Z,95072.66
2018-08-06T01:52:43.141Z,95066.56
2018-08-06T01:55:18.091Z,95068.73
2018-08-06T01:57:47.990Z,95069.26
2018-08-06T02:00:20.626Z,95067.89
2018-08-06T02:02:49.398Z,95066.00
2018-08-06T02:05:18.170Z,95065.16
2018-08-06T02:07:46.923Z,95061.61
2018-08-06T02:10:16.502Z,95065.20
2018-08-06T02:12:45.690Z,95071.09
2018-08-06T02:15:15.010Z,95069.52
2018-08-06T02:17:43.771Z,95070.61
2018-08-06T02:20:16.448Z,95072.46
2018-08-06T02:22:46.548Z,95070.08
2018-08-06T02:25:15.507Z,95073.80
2018-08-06T02:27:44.649Z,95075.60
2018-08-06T02:30:14.946Z,95075.60
2018-08-06T02:32:43.840Z,95076.37
2018-08-06T02:35:14.426Z,95075.53
2018-08-06T02:37:44.005Z,95081.94
2018-08-06T02:40:14.624Z,95088.09
2018-08-06T02:42:43.394Z,95086.77
2018-08-06T02:45:12.250Z,95088.30
2018-08-06T02:47:41.126Z,95094.91
2018-08-06T02:50:11.312Z,95099.66
2018-08-06T02:52:40.877Z,95105.09
2018-08-06T02:55:11.843Z,95104.23
2018-08-06T02:57:40.677Z,95102.02
2018-08-06T03:00:13.564Z,95103.86
2018-08-06T03:02:43.667Z,95104.00
2018-08-06T03:05:14.122Z,95107.62
2018-08-06T03:07:44.106Z,95100.34
2018-08-06T03:10:13.106Z,95106.42
2018-08-06T03:12:42.509Z,95107.56
2018-08-06T03:15:12.632Z,95115.25
2018-08-06T03:17:41.931Z,95113.31
2018-08-06T03:20:12.546Z,95122.55
2018-08-06T03:22:41.455Z,95121.98
2018-08-06T03:25:12.729Z,95129.84
2018-08-06T03:27:42.038Z,95128.75
2018-08-06T03:30:13.296Z,95123.94
2018-08-06T03:32:42.501Z,95119.15
2018-08-06T03:35:12.043Z,95116.20
2018-08-06T03:37:40.830Z,95125.17
2018-08-06T03:40:10.361Z,95128.64
2018-08-06T03:42:39.385Z,95124.31
2018-08-06T03:45:09.665Z,95124.31
2018-08-06T03:47:38.789Z,95123.09
2018-08-06T03:50:09.443Z,95128.16
2018-08-06T03:52:38.290Z,95121.11
2018-08-06T03:55:08.514Z,95119.31
2018-08-06T03:57:37.432Z,95121.50
2018-08-06T04:00:09.281Z,95120.74
2018-08-06T04:02:38.118Z,95123.70
2018-08-06T04:05:09.520Z,95122.98
2018-08-06T04:07:38.494Z,95126.79
2018-08-06T04:10:08.402Z,95124.75
2018-08-06T04:12:37.181Z,95114.07
2018-08-06T04:15:07.014Z,95120.43
2018-08-06T04:17:35.789Z,95131.91
2018-08-06T04:20:05.288Z,95125.41
2018-08-06T04:22:34.118Z,95129.66
2018-08-06T04:25:02.989Z,95125.08
2018-08-06T04:27:31.777Z,95127.87
2018-08-06T04:30:00.762Z,95127.06
2018-08-06T04:32:29.530Z,95135.89
2018-08-06T04:34:58.323Z,95134.65
2018-08-06T04:37:27.162Z,95134.49
2018-08-06T04:39:55.900Z,95136.72
2018-08-06T04:42:24.710Z,95133.61
2018-08-06T04:44:53.467Z,95137.07
2018-08-06T04:47:22.285Z,95139.80
2018-08-06T04:49:51.058Z,95143.80
2018-08-06T04:52:20.101Z,95142.02
2018-08-06T04:54:48.889Z,95149.38
2018-08-06T04:57:18.094Z,95147.29
2018-08-06T04:59:47.041Z,95146.58
2018-08-06T05:02:16.015Z,95157.09
2018-08-06T05:04:44.731Z,95150.74
2018-08-06T05:07:13.582Z,95148.63
2018-08-06T05:09:43.760Z,95158.37
2018-08-06T05:12:12.541Z,95160.34
2018-08-06T05:14:42.098Z,95161.43
2018-08-06T05:17:10.860Z,95156.49
2018-08-06T05:19:39.692Z,95159.88
2018-08-06T05:22:08.610Z,95161.41
2018-08-06T05:24:37.457Z,95162.62
2018-08-06T05:27:06.289Z,95164.45
2018-08-06T05:29:35.088Z,95170.20
2018-08-06T05:32:04.273Z,95165.64
2018-08-06T05:34:33.070Z,95168.84
2018-08-06T05:37:01.954Z,95169.89
2018-08-06T05:39:30.797Z,95171.98
2018-08-06T05:41:59.694Z,95171.83
2018-08-06T05:44:28.454Z,95175.64
2018-08-06T05:46:57.241Z,95166.84
2018-08-06T05:49:26.037Z,95168.79
2018-08-06T05:51:54.833Z,95160.80
2018-08-06T05:54:23.765Z,95171.88
2018-08-06T05:56:52.695Z,95176.39
2018-08-06T05:59:21.486Z,95173.45
2018-08-06T06:01:50.286Z,95172.14
2018-08-06T06:04:19.060Z,95182.33
2018-08-06T06:06:48.599Z,95181.58
2018-08-06T06:09:17.462Z,95178.09
2018-08-06T06:11:46.316Z,95175.37
2018-08-06T06:14:15.226Z,95175.91
2018-08-06T06:16:44.023Z,95173.27
2018-08-06T06:19:12.892Z,95174.34
2018-08-06T06:21:42.318Z,95175.41
2018-08-06T06:24:11.107Z,95173.55
2018-08-06T06:26:39.850Z,95177.86
2018-08-06T06:29:08.621Z,95172.54
2018-08-06T06:31:37.467Z,95172.80
2018-08-06T06:34:06.801Z,95174.98
2018-08-06T06:36:35.619Z,95176.61
2018-08-06T06:39:06.700Z,95172.06
2018-08-06T06:41:35.526Z,95178.78
2018-08-06T06:44:04.559Z,95167.77
2018-08-06T06:46:33.354Z,95166.14
2018-08-06T06:49:02.297Z,95169.09
2018-08-06T06:51:31.150Z,95173.38
2018-08-06T06:54:00.357Z,95169.09
2018-08-06T06:56:29.253Z,95167.48
2018-08-06T06:58:58.134Z,95169.09
2018-08-06T07:01:26.952Z,95180.36
2018-08-06T07:03:55.767Z,95174.48
2018-08-06T07:06:24.979Z,95170.20
2018-08-06T07:08:54.227Z,95168.36
2018-08-06T07:11:23.430Z,95175.00
2018-08-06T07:13:52.271Z,95174.47
2018-08-06T07:16:21.633Z,95174.47
2018-08-06T07:18:50.452Z,95174.17
2018-08-06T07:21:19.297Z,95173.10
2018-08-06T07:23:48.643Z,95170.09
2018-08-06T07:26:17.451Z,95171.16
2018-08-06T07:28:46.209Z,95166.05
2018-08-06T07:31:15.007Z,95171.13
2018-08-06T07:33:43.818Z,95167.64
2018-08-06T07:36:12.710Z,95166.03
2018-08-06T07:38:41.447Z,95170.00
2018-08-06T07:41:10.262Z,95164.01
2018-08-06T07:43:39.131Z,95163.16
2018-08-06T07:46:08.000Z,95163.47
2018-08-06T07:48:36.780Z,95164.22
2018-08-06T07:51:06.105Z,95169.80
2018-08-06T07:53:35.240Z,95167.11
2018-08-06T07:56:04.058Z,95162.76
2018-08-06T07:58:32.871Z,95166.51
2018-08-06T08:01:01.708Z,95175.52
2018-08-06T08:03:30.481Z,95174.98
2018-08-06T08:06:00.079Z,95170.67
2018-08-06T08:08:28.845Z,95167.43
2018-08-06T08:10:57.663Z,95165.80
2018-08-06T08:13:26.590Z,95165.10
2018-08-06T08:15:55.631Z,95166.02
2018-08-06T08:18:24.794Z,95162.16
2018-08-06T08:20:53.647Z,95158.05
2018-08-06T08:23:22.852Z,95155.12
2018-08-06T08:25:51.999Z,95158.57
2018-08-06T08:28:21.202Z,95160.42
2018-08-06T08:30:50.317Z,95158.81
2018-08-06T08:33:19.419Z,95156.65
2018-08-06T08:35:48.261Z,95157.08
2018-08-06T08:38:17.071Z,95158.36
2018-08-06T08:40:45.930Z,95151.06
2018-08-06T08:43:14.880Z,95151.75
2018-08-06T08:45:44.156Z,95146.58
2018-08-06T08:48:12.930Z,95142.24
2018-08-06T08:50:41.715Z,95142.70
2018-08-06T08:53:10.596Z,95142.12
2018-08-06T08:55:39.796Z,95143.88
2018-08-06T08:58:08.605Z,95142.45
2018-08-06T09:00:37.382Z,95141.29
2018-08-06T09:03:06.197Z,95137.86
2018-08-06T09:05:35.049Z,95138.88
2018-08-06T09:08:03.875Z,95136.69
2018-08-06T09:10:32.717Z,95134.17
2018-08-06T09:13:01.583Z,95130.91
2018-08-06T09:15:30.379Z,95125.27
2018-08-06T09:17:59.476Z,95123.16
2018-08-06T09:20:28.321Z,95125.91
2018-08-06T09:22:57.557Z,95120.12
2018-08-06T09:25:26.809Z,95120.01
2018-08-06T09:27:55.617Z,95121.92
2018-08-06T09:30:25.220Z,95117.52
2018-08-06T09:32:55.526Z,95116.39
2018-08-06T09:35:24.395Z,95117.42
2018-08-06T09:37:53.601Z,95113.39
2018-08-06T09:40:23.370Z,95109.00
2018-08-06T09:42:52.821Z,95107.85
2018-08-06T09:45:22.531Z,95109.52
2018-08-06T09:47:52.483Z,95104.04
2018-08-06T09:50:21.804Z,95106.28
2018-08-06T09:52:51.718Z,95098.00
2018-08-06T09:55:22.939Z,95094.78
2018-08-06T09:57:52.278Z,95097.69
2018-08-06T10:00:27.349Z,95088.01
2018-08-06T10:02:57.614Z,95078.48
2018-08-06T10:05:27.006Z,95085.78
2018-08-06T10:07:55.829Z,95087.49
2018-08-06T10:10:24.703Z,95082.48
2018-08-06T10:12:53.504Z,95085.78
2018-08-06T10:15:22.656Z,95078.50
2018-08-06T10:17:54.335Z,95077.31
2018-08-06T10:20:24.538Z,95078.73
2018-08-06T10:22:53.290Z,95078.04
2018-08-06T10:25:22.230Z,95070.58
2018-08-06T10:27:51.079Z,95061.98
2018-08-06T10:30:22.258Z,95060.80
2018-08-06T10:32:51.229Z,95059.59
2018-08-06T10:35:20.781Z,95058.72
2018-08-06T10:37:49.599Z,95055.13
2018-08-06T10:40:23.388Z,95049.70
2018-08-06T10:42:52.463Z,95050.12
2018-08-06T10:45:22.498Z,95058.38
2018-08-06T10:47:51.986Z,95045.44
2018-08-06T10:50:20.801Z,95045.19
2018-08-06T10:52:49.961Z,95042.54
2018-08-06T10:55:18.793Z,95042.08
2018-08-06T10:57:47.649Z,95039.56
2018-08-06T11:00:23.966Z,95036.02
2018-08-06T11:02:53.229Z,95030.59
2018-08-06T11:05:22.097Z,95032.27
2018-08-06T11:07:51.329Z,95029.62
2018-08-06T11:10:21.837Z,95030.13
2018-08-06T11:12:50.660Z,95027.09
2018-08-06T11:15:24.241Z,95030.30
2018-08-06T11:17:53.177Z,95031.91
2018-08-06T11:20:22.454Z,95022.67
2018-08-06T11:22:51.379Z,95024.86
2018-08-06T11:25:22.517Z,95017.23
2018-08-06T11:27:51.353Z,95021.61
2018-08-06T11:30:21.450Z,95016.36
2018-08-06T11:32:51.178Z,95011.50
2018-08-06T11:35:20.550Z,95011.73
2018-08-06T11:37:49.457Z,95013.78
2018-08-06T11:40:18.880Z,95014.56
2018-08-06T11:42:49.044Z,95015.47
2018-08-06T11:45:19.267Z,95002.18
2018-08-06T11:47:48.209Z,95000.78
2018-08-06T11:50:17.013Z,94998.52
2018-08-06T11:52:45.904Z,94999.81
2018-08-06T11:55:14.742Z,94997.58
2018-08-06T11:57:44.134Z,94998.38
2018-08-06T12:00:16.113Z,94996.48
2018-08-06T12:02:45.289Z,94987.22
2018-08-06T12:05:14.130Z,94996.92
2018-08-06T12:07:43.023Z,94983.92
2018-08-06T12:10:14.169Z,94983.98
2018-08-06T12:12:43.879Z,94990.83
2018-08-06T12:15:13.415Z,94985.43
2018-08-06T12:17:42.688Z,94975.39
2018-08-06T12:20:14.421Z,94977.89
2018-08-06T12:22:44.550Z,94972.45
2018-08-06T12:25:14.190Z,94976.88
2018-08-06T12:27:43.389Z,94974.43
2018-08-06T12:30:15.117Z,94970.84
2018-08-06T12:32:44.654Z,94968.69
2018-08-06T12:35:13.813Z,94969.79
2018-08-06T12:37:42.804Z,94964.39
2018-08-06T12:40:13.786Z,94963.75
2018-08-06T12:42:43.046Z,94964.70
2018-08-06T12:45:12.999Z,94953.14
2018-08-06T12:47:42.665Z,94955.93
2018-08-06T12:50:13.404Z,94951.52
2018-08-06T12:52:42.942Z,94946.33
2018-08-06T12:55:13.298Z,94945.01
2018-08-06T12:57:42.961Z,94950.53
2018-08-06T13:00:20.142Z,94959.94
2018-08-06T13:02:49.677Z,94953.67
2018-08-06T13:05:19.105Z,94951.34
2018-08-06T13:07:48.121Z,94939.57
2018-08-06T13:10:17.066Z,94939.72
2018-08-06T13:12:45.788Z,94945.06
2018-08-06T13:15:15.551Z,94940.45
2018-08-06T13:17:44.555Z,94938.58
2018-08-06T13:20:13.496Z,94942.88
2018-08-06T13:22:42.754Z,94939.92
2018-08-06T13:25:12.841Z,94939.24
2018-08-06T13:27:41.969Z,94938.24
2018-08-06T13:30:14.031Z,94938.15
2018-08-06T13:32:43.955Z,94936.67
2018-08-06T13:35:14.313Z,94934.83
2018-08-06T13:37:43.141Z,94930.34
2018-08-06T13:40:12.363Z,94923.34
2018-08-06T13:42:41.171Z,94928.74
2018-08-06T13:45:12.419Z,94922.49
2018-08-06T13:47:41.615Z,94919.23
2018-08-06T13:50:11.124Z,94920.27
2018-08-06T13:52:40.179Z,94917.27
2018-08-06T13:55:11.016Z,94918.45
2018-08-06T13:57:40.429Z,94917.21
2018-08-06T14:00:12.431Z,94921.02
2018-08-06T14:02:41.682Z,94918.32
2018-08-06T14:05:12.017Z,94911.25
2018-08-06T14:07:44.203Z,94910.45
2018-08-06T14:10:14.019Z,94908.19
2018-08-06T14:12:42.928Z,94913.59
2018-08-06T14:15:12.530Z,94909.96
2018-08-06T14:17:41.904Z,94913.39
2018-08-06T14:20:15.932Z,94902.58
2018-08-06T14:22:44.922Z,94901.86
2018-08-06T14:25:13.910Z,94899.64
2018-08-06T14:27:42.810Z,94897.80
2018-08-06T14:30:15.190Z,94894.55
2018-08-06T14:32:44.633Z,94898.41
2018-08-06T14:35:14.224Z,94904.80
2018-08-06T14:37:43.098Z,94905.84
2018-08-06T14:40:15.472Z,94898.67
2018-08-06T14:42:45.449Z,94905.36
2018-08-06T14:45:14.304Z,94897.97
2018-08-06T14:47:43.282Z,94902.03
2018-08-06T14:50:13.672Z,94908.23
2018-08-06T14:52:42.554Z,94903.45
2018-08-06T14:55:11.795Z,94904.10
2018-08-06T14:57:41.577Z,94901.23
2018-08-06T15:00:19.257Z,94906.53
2018-08-06T15:02:48.912Z,94899.56
2018-08-06T15:05:17.934Z,94903.54
2018-08-06T15:07:47.301Z,94897.03
2018-08-06T15:10:16.771Z,94900.13
2018-08-06T15:12:45.868Z,94902.27
2018-08-06T15:15:16.283Z,94900.91
2018-08-06T15:17:46.450Z,94895.60
2018-08-06T15:20:17.450Z,94900.70
2018-08-06T15:22:46.429Z,94898.94
2018-08-06T15:25:19.847Z,94899.91
2018-08-06T15:27:48.853Z,94906.03
2018-08-06T15:30:18.428Z,94894.02
2018-08-06T15:32:47.446Z,94901.73
2018-08-06T15:35:16.279Z,94902.67
2018-08-06T15:37:45.560Z,94895.27
2018-08-06T15:40:17.085Z,94898.84
2018-08-06T15:42:45.974Z,94900.09
2018-08-06T15:45:15.188Z,94897.17
2018-08-06T15:47:44.942Z,94906.70
2018-08-06T15:50:16.020Z,94906.69
2018-08-06T15:52:44.869Z,94915.36
2018-08-06T15:55:15.518Z,94904.91
2018-08-06T15:57:44.381Z,94903.83
2018-08-06T16:00:15.578Z,94912.88
2018-08-06T16:02:44.708Z,94911.77
2018-08-06T16:05:14.338Z,94915.45
2018-08-06T16:07:43.127Z,94907.47
2018-08-06T16:10:12.700Z,94908.82
2018-08-06T16:12:41.909Z,94911.78
2018-08-06T16:15:12.545Z,94914.78
2018-08-06T16:17:42.200Z,94913.53
2018-08-06T16:20:13.835Z,94914.58
2018-08-06T16:22:42.858Z,94914.09
2018-08-06T16:25:12.239Z,94914.78
2018-08-06T16:27:41.098Z,94917.39
2018-08-06T16:30:22.171Z,94916.84
2018-08-06T16:32:51.226Z,94928.72
2018-08-06T16:35:22.930Z,94930.25
2018-08-06T16:37:53.162Z,94928.60
2018-08-06T16:40:22.326Z,94928.91
2018-08-06T16:42:51.846Z,94934.05
2018-08-06T16:45:25.168Z,94929.44
2018-08-06T16:47:54.210Z,94935.44
2018-08-06T16:50:23.456Z,94939.14
2018-08-06T16:52:59.400Z,94938.05
2018-08-06T16:55:28.655Z,94937.63
2018-08-06T16:57:58.046Z,94943.19
2018-08-06T17:00:27.891Z,94945.08
2018-08-06T17:02:56.747Z,94950.52
2018-08-06T17:05:25.591Z,94950.56
2018-08-06T17:07:54.724Z,94948.80
2018-08-06T17:10:23.598Z,94950.27
2018-08-06T17:12:53.672Z,94949.52
2018-08-06T17:15:22.892Z,94951.20
2018-08-06T17:17:53.238Z,94955.11
2018-08-06T17:20:22.851Z,94951.78
2018-08-06T17:22:52.354Z,94955.10
2018-08-06T17:25:21.283Z,94959.14
2018-08-06T17:27:50.091Z,94960.38
2018-08-06T17:30:19.446Z,94960.24
2018-08-06T19:06:35.042Z,95031.83
2018-08-06T19:09:13.305Z,95029.69
2018-08-06T19:11:42.695Z,95032.69
2018-08-06T19:14:26.368Z,95033.83
2018-08-06T19:16:55.237Z,95031.98
2018-08-06T19:19:26.384Z,95036.06
2018-08-06T19:21:56.250Z,95037.97
2018-08-06T19:24:30.425Z,95037.42
2018-08-06T19:26:59.288Z,95035.33
2018-08-06T19:29:28.180Z,95034.27
2018-08-06T19:31:56.937Z,95037.22
2018-08-06T19:34:25.793Z,95040.17
2018-08-06T19:36:59.940Z,95036.14
2018-08-06T19:39:28.823Z,95042.09
2018-08-06T19:41:57.840Z,95042.10
2018-08-06T19:44:26.624Z,95041.84
2018-08-06T19:46:55.430Z,95041.86
2018-08-06T19:49:29.329Z,95042.66
2018-08-06T19:52:08.625Z,95042.38
2018-08-06T19:54:37.424Z,95046.94
2018-08-06T19:57:06.351Z,95052.01
2018-08-06T19:59:35.139Z,95045.31
2018-08-06T20:02:04.268Z,95041.31
2018-08-06T20:04:33.202Z,95045.34
2018-08-06T20:07:02.021Z,95042.66
2018-08-06T20:09:30.830Z,95042.66
2018-08-06T20:11:59.650Z,95049.67
2018-08-06T20:14:28.553Z,95049.13
2018-08-06T20:16:57.405Z,95054.27
2018-08-06T20:19:26.238Z,95055.65
2018-08-06T20:21:55.022Z,95050.30
2018-08-06T20:24:24.245Z,95045.43
2018-08-06T20:26:53.261Z,95045.43
2018-08-06T20:29:22.090Z,95051.11
2018-08-06T20:31:50.860Z,95052.01
2018-08-06T20:34:19.635Z,95051.27
2018-08-06T20:36:48.470Z,95058.23
2018-08-06T20:39:17.271Z,95051.58
2018-08-06T20:41:46.060Z,95050.50
2018-08-06T20:44:14.943Z,95057.77
2018-08-06T20:46:44.105Z,95062.33
2018-08-06T20:49:13.220Z,95059.14
2018-08-06T20:51:42.422Z,95059.95
2018-08-06T20:54:11.178Z,95062.39
2018-08-06T20:56:40.424Z,95061.59
2018-08-06T20:59:09.191Z,95066.70
2018-08-06T21:01:38.001Z,95068.33
2018-08-06T21:04:06.764Z,95070.72
2018-08-06T21:06:35.907Z,95073.16
2018-08-06T21:09:06.879Z,95074.78
2018-08-06T21:11:35.819Z,95070.77
2018-08-06T21:14:05.062Z,95066.75
2018-08-06T21:16:34.166Z,95063.83
2018-08-06T21:19:03.280Z,95065.70
2018-08-06T21:21:32.084Z,95063.55
2018-08-06T21:24:00.867Z,95068.37
2018-08-06T21:26:29.635Z,95060.63
2018-08-06T21:28:58.398Z,95062.50
2018-08-06T21:31:27.149Z,95063.30
2018-08-06T21:33:56.031Z,95067.02
2018-08-06T21:36:24.759Z,95065.41
2018-08-06T21:38:53.578Z,95061.66
2018-08-06T21:41:22.334Z,95061.69
2018-08-06T21:43:51.509Z,95062.21
2018-08-06T21:46:20.302Z,95068.36
2018-08-06T21:48:49.166Z,95069.16
2018-08-06T21:51:18.318Z,95067.27
2018-08-06T21:53:47.066Z,95071.84
2018-08-06T21:56:16.227Z,95069.69
2018-08-06T21:58:45.065Z,95067.80
2018-08-06T22:01:13.911Z,95069.14
2018-08-06T22:03:42.697Z,95075.55
2018-08-06T22:06:11.765Z,95077.96
2018-08-06T22:08:40.556Z,95076.63
2018-08-06T22:11:09.773Z,95078.75
2018-08-06T22:13:38.594Z,95081.95
2018-08-06T22:16:07.434Z,95079.80
2018-08-06T22:18:36.246Z,95077.13
2018-08-06T22:21:05.039Z,95074.99
2018-08-06T22:23:33.879Z,95071.53
2018-08-06T22:26:02.710Z,95071.27
2018-08-06T22:28:31.477Z,95076.03
2018-08-06T22:31:00.251Z,95069.89
2018-08-06T22:33:29.113Z,95067.20
2018-08-06T22:35:57.922Z,95071.75
2018-08-06T22:38:26.774Z,95069.05
2018-08-06T22:40:55.473Z,95074.36
2018-08-06T22:43:24.639Z,95070.88
2018-08-06T22:45:53.557Z,95066.36
2018-08-06T22:48:22.418Z,95064.47
2018-08-06T22:50:51.219Z,95070.34
2018-08-06T22:53:19.991Z,95066.05
2018-08-06T22:56:00.666Z,95066.31
2018-08-06T22:58:29.459Z,95062.54
2018-08-06T23:00:58.314Z,95060.11
2018-08-06T23:03:27.143Z,95061.70
2018-08-06T23:05:55.955Z,95060.63
2018-08-06T23:08:25.096Z,95059.83
2018-08-06T23:10:53.870Z,95064.59
2018-08-06T23:13:22.617Z,95056.33
2018-08-06T23:15:51.485Z,95059.80
2018-08-06T23:18:20.285Z,95058.45
2018-08-06T23:20:49.062Z,95058.94
2018-08-06T23:23:17.841Z,95060.00
2018-08-06T23:25:46.977Z,95072.56
2018-08-06T23:28:15.796Z,95067.75
2018-08-06T23:30:44.579Z,95060.78
2018-08-06T23:33:13.764Z,95061.81
2018-08-06T23:35:42.613Z,95064.20
2018-08-06T23:38:11.425Z,95063.09
2018-08-06T23:40:40.263Z,95064.41
2018-08-06T23:43:09.149Z,95063.08
2018-08-06T23:45:37.940Z,95067.08
2018-08-06T23:48:07.055Z,95061.22
2018-08-06T23:50:35.762Z,95061.22
2018-08-06T23:53:04.666Z,95056.39
2018-08-06T23:55:33.586Z,95056.09
2018-08-06T23:58:02.317Z,95059.82
